AirNav  
 
Fuel
  

F66 Carroll Air Park
De Soto, Texas, USA

GOING TO DE SOTO?

Reserve a HOTEL

FAA INFORMATION EFFECTIVE 25 NOVEMBER 2004

Location

FAA Identifier: F66
Lat/Long: 32-33-25.4910N / 096-51-56.0010W
32-33.424850N / 096-51.933350W
32.5570808 / -96.8655558
(estimated)
Elevation: 715 ft. / 218 m (estimated)
Variation: 06E (1985)
From city: 2 miles S of DE SOTO, TX

Airport Operations

Airport use: Open to the public
Sectional chart: DALLAS-FT WORTH
Control tower: no
ARTCC: FORT WORTH CENTER
FSS: FORT WORTH FLIGHT SERVICE STATION [1-866-272-7915]
FOR LOCAL CALL TO FSS DIAL 350-3311.
NOTAMs facility: FTW (NOTAM-D service available)
Attendance: UNATNDD
Wind indicator: yes
Segmented circle: no

Airport Communications

CTAF: 122.9

Nearby radio navigation aids

VOR radial/distance  VOR name  Freq  Var
CVEr168/20.1COWBOY VOR/DME116.2006E
TTTr149/20.7MAVERICK VOR/DME113.1006E
FUZr136/25.5RANGER VORTAC115.7006E
CQYr298/39.7CEDAR CREEK VORTAC114.8006E

 
NDB name  Hdg/Dist  Freq  Var  ID
CEDAR HILL102/6.035308EXQH -..- --.- ....
REDBIRD172/7.228706ERBD .-. -... -..
LANCASTER254/7.423906ELNC .-.. -. -.-.
JECCA242/18.138806EJUG .--- ..- --.
MESQUITE222/22.824806EPQF .--. --.- ..-.
TRAVIS243/33.426006EAVZ .- ...- --..
POWELL317/37.034406ECGQ -.-. --. --.-
CORSICANA317/39.739606ECRS -.-. .-. ...

Airport Services

Parking: hangars and tiedowns
Bulk oxygen: NONE

Runway Information

Runway 17/35

Dimensions: 2600 x 60 ft. / 792 x 18 m
Surface: turf, in fair condition
RUNWAY 17  RUNWAY 35
Traffic pattern: leftleft
Obstructions: 20 ft. pline, marked
MKD BY 1 BALL ON CNTRLN.
25 ft. trees, 50 ft. right of centerline

Airport Operational Statistics

Aircraft based on the field: 10
Single engine airplanes: 8
Ultralights: 2
    
Aircraft operations: avg 69/week
67% local general aviation
33% transient general aviation

Additional Remarks

137' TOWER APRXLY 2500' NNW FROM RWY 17.

Instrument Procedures

There are no published instrument procedures at F66.

Some nearby airports with instrument procedures:

KJWY - Mid-Way Regional Airport (7 nm S)
KRBD - Dallas Executive Airport (7 nm N)
KLNC - Lancaster Airport (8 nm E)
KGPM - Grand Prairie Municipal Airport (12 nm NW)
KGKY - Arlington Municipal Airport (13 nm NW)
 
Loc | Ops | Rwys | IFR | FBO | Links
Com | Nav | Svcs | Stats | Notes
 
Area around F66 (Carroll Air Park)
 
No photo
 
Airport distance calculator
Flying to Carroll Air Park? Find the distance to fly.

From to F66

Sunrise and sunset
Times for 05-Dec-2004
 Local
(UTC-6)
 Zulu
(UTC)
Morning civil twilight06:5012:50
Sunrise07:1613:16
Sunset17:2123:21
Evening civil twilight17:4823:48
 
METAR
KJWY 
7nm S 
051005Z AUTO 11004KT 7SM OVC010 11/10 A2990 RMK AO2
KLNC 
8nm E 
051005Z AUTO 11003KT 7SM OVC011 10/08 A2992 RMK AO2
KRBD 
8nm N 
050953Z 13005KT 7SM -RA OVC011 11/11 A2991 RMK AO2 RAE0855B39 SLP125 P0000 T01110106
KGPM 
13nm NW 
051005Z AUTO 14007KT 10SM OVC012 10/08 A2990 RMK AO1
KGKY 
14nm NW 
050953Z AUTO 14008KT 7SM BKN013 OVC080 12/10 A2990 RMK AO2 SLP121 T01170100
KDAL 
18nm N 
050953Z 14007KT 8SM OVC014 12/10 A2992
TAF
KDAL 
18nm N 
050553Z 050606 16010KT P6SM SCT050 OVC100
TEMPO 0609 6SM -RA
FM0900 17010KT P6SM BKN040 OVC080
TEMPO 0912 6SM -RA
FM1200 18010KT P6SM BKN015 OVC050
TEMPO 1316 4SM -RA BKN008
FM1600 18012KT 4SM -RA BR OVC009
TEMPO 1822 2SM RA BR OVC006
FM0100 18010KT P6SM SCT009 OVC015 PROB30 0105 3SM SHRA
KDFW 
22nm N 
050552Z 050606 16010KT P6SM SCT040 OVC100
TEMPO 0609 6SM -RA
FM0900 17010KT P6SM BKN040 OVC080
TEMPO 0912 6SM -RA
FM1200 18010KT P6SM BKN015 OVC050
TEMPO 1316 4SM -RA BKN008
FM1600 18012KT 4SM -RA BR OVC009
TEMPO 1822 2SM RA BR OVC006
FM0100 18010KT P6SM SCT009 OVC015 PROB30 0105 3SM SHRA

 
 

Where to Stay: Hotels, Motels, Resorts, B&Bs, Campgrounds

 In this space we feature lodging establishments that are convenient to the Carroll Air Park. If your hotel/inn/B&B/resort is near the Carroll Air Park, provides convenient transportation, or is otherwise attractive to pilots, flight crews, and airport users, consider listing it here.  
Feature A Hotel
 

Hotels near Carroll Air Park

Miles Price ($)
HOWARD JOHNSON EXPRESS INN 2.8 59-83
DAYS INN DALLAS RED OAK 3.3 46-55
SUPER 8 LANCASTER DALLAS AREA 3.8 50-65
BEST WESTERN OF DE SOTO 4.4 62-69
RED ROOF DALLAS DESOTO 4.6 45-50
RAMADA LTD CEDAR HILL TX 5.2 53-69

Distances are approximate, and may vary depending on the actual route traveled and the location of the travel start on the airport.
    

Hotels in other cities near Carroll Air Park

2 in De Soto
2 in Red Oak
1 in Cedar Hill
1 in Lancaster
1 in Duncanville
1 in Midlothian
4 in Waxahachie
8 in Grand Prairie
1 in Mansfield
112 in Dallas
62 in Irving
31 in Arlington
1 in Seagoville
 

Would you like to see your business listed on this page?

 If your business provides an interesting product or service to pilots, flight crews, aircraft, or users of the Carroll Air Park, you should consider listing it here.  To start the listing process, click on the button below
 
Add a business
 

Other Pages about Carroll Air Park

Add a link
 
Copyright © AirNav, LLC. All rights reserved. Privacy Policy  Contact